TimeCST,TemperatureF,Dew PointF,Humidity,Sea Level PressureIn,VisibilityMPH,Wind Direction,Wind SpeedMPH,Gust SpeedMPH,PrecipitationIn,Events,Conditions,WindDirDegrees,DateUTC
12:00 AM,70,59,60,29.86,12,ESE,11.5,,,,,110,2013-03-27 06:00:00
12:00 AM,69.8,59.0,68,30.00,-9999.0,ESE,11.5,23.0,N/A,,Clear,110,2013-03-27 06:00:00
1:00 AM,71.6,57.2,60,29.99,-9999.0,East,9.2,23.0,N/A,,Clear,100,2013-03-27 07:00:00
2:00 AM,71.6,59.0,64,29.99,-9999.0,ESE,13.8,-,N/A,,Clear,110,2013-03-27 08:00:00
3:00 AM,70,59,60,29.79,12,SE,11.5,,,,,140,2013-03-27 09:00:00
3:00 AM,69.8,59.0,68,29.97,-9999.0,SE,11.5,-,N/A,,Clear,140,2013-03-27 09:00:00
4:00 AM,69.8,59.0,68,29.98,-9999.0,ESE,11.5,-,N/A,,Clear,110,2013-03-27 10:00:00
5:00 AM,69.8,59.0,68,29.99,-9999.0,North,-9999.0,-,N/A,,Clear,0,2013-03-27 11:00:00
6:00 AM,70,59,60,29.82,12,ESE,17.3,,,,Scattered Clouds,120,2013-03-27 12:00:00
6:00 AM,69.8,59.0,68,30.00,6.2,ESE,17.3,28.8,N/A,,Scattered Clouds,120,2013-03-27 12:00:00
7:00 AM,71.6,60.8,69,30.02,6.2,ESE,19.6,34.5,N/A,,Mostly Cloudy,120,2013-03-27 13:00:00
8:00 AM,75.2,57.2,53,30.05,6.2,East,20.7,-,N/A,,Mostly Cloudy,100,2013-03-27 14:00:00
9:00 AM,79,57,37,29.90,12,ESE,18.4,,,,Scattered Clouds,110,2013-03-27 15:00:00
9:00 AM,78.8,57.2,47,30.09,6.2,ESE,18.4,-,N/A,,Mostly Cloudy,110,2013-03-27 15:00:00
10:00 AM,78.8,55.4,44,30.10,6.2,East,19.6,31.1,N/A,,Mostly Cloudy,90,2013-03-27 16:00:00
11:00 AM,82.4,53.6,37,30.07,6.2,East,13.8,-,N/A,,Mostly Cloudy,80,2013-03-27 17:00:00
12:00 PM,81,55,31,29.87,12,East,20.7,,,,Scattered Clouds,90,2013-03-27 18:00:00
12:00 PM,80.6,55.4,42,30.04,6.2,East,20.7,32.2,N/A,,Mostly Cloudy,90,2013-03-27 18:00:00
12:30 PM,84.2,50.0,30,30.03,6.2,East,27.6,40.3,N/A,,Mostly Cloudy,80,2013-03-27 18:30:00
1:00 PM,82.4,51.8,35,30.01,6.2,East,24.2,35.7,N/A,,Mostly Cloudy,80,2013-03-27 19:00:00
2:00 PM,82.4,51.8,35,29.99,6.2,East,21.9,33.4,N/A,,Mostly Cloudy,90,2013-03-27 20:00:00
3:00 PM,81,52,26,29.81,12,East,25.3,,,,Overcast,80,2013-03-27 21:00:00
3:00 PM,80.6,51.8,37,29.99,6.2,East,25.3,-,N/A,,Mostly Cloudy,80,2013-03-27 21:00:00
4:00 PM,78.8,51.8,39,29.99,6.2,East,24.2,-,N/A,,Mostly Cloudy,80,2013-03-27 22:00:00
5:00 PM,75.2,53.6,47,29.99,6.2,East,21.9,-,N/A,,Mostly Cloudy,90,2013-03-27 23:00:00
6:00 PM,73,55,44,29.86,12,ESE,18.4,,,,Scattered Clouds,110,2013-03-28 00:00:00
6:00 PM,73.4,55.4,53,30.01,6.2,ESE,18.4,-,N/A,,Mostly Cloudy,110,2013-03-28 00:00:00
7:00 PM,71.6,57.2,60,30.03,6.2,ESE,18.4,-,N/A,,Scattered Clouds,110,2013-03-28 01:00:00
8:00 PM,71.6,59.0,64,30.05,6.2,East,17.3,-,N/A,,Scattered Clouds,100,2013-03-28 02:00:00
9:00 PM,70,61,65,29.86,12,ESE,16.1,,,,Scattered Clouds,110,2013-03-28 03:00:00
9:00 PM,69.8,60.8,73,30.05,6.2,ESE,16.1,-,N/A,,Partly Cloudy,110,2013-03-28 03:00:00
10:00 PM,69.8,60.8,73,30.06,6.2,ESE,17.3,28.8,N/A,,Partly Cloudy,110,2013-03-28 04:00:00
11:00 PM,69.8,60.8,73,30.06,6.2,ESE,17.3,29.9,N/A,,Partly Cloudy,110,2013-03-28 05:00:00